Time;durP1;ratioP1;P1;durP2;ratioP2;P2;SDS_P1;SDS_P2;PMS_P1;PMS_P2;Temp;Humidity;BMP_temperature;BMP_pressure;BME280_temperature;BME280_humidity;BME280_pressure;Samples;Min_cycle;Max_cycle;Signal;HPM_P1;HPM_P2
2024/01/20 00:01:28;;;;;;;14.20;8.77;;;-2.90;99.90;;;-141.84;88.67;49943.41;5101291;28;20288;-78
2024/01/20 00:03:56;;;;;;;17.27;10.37;;;-3.00;99.90;;;-141.84;88.64;51254.38;5103696;28;20202;-76
2024/01/20 00:06:25;;;;;;;17.43;10.10;;;-3.00;99.90;;;-141.84;88.81;52041.16;5106939;28;20315;-76
2024/01/20 00:08:55;;;;;;;17.80;9.57;;;-3.00;99.90;;;-141.84;88.91;52828.09;5109127;28;20288;-75
2024/01/20 00:11:23;;;;;;;16.83;9.67;;;-3.00;99.90;;;-141.84;89.39;55452.34;5110118;28;20220;-76
2024/01/20 00:13:52;;;;;;;13.53;9.37;;;-3.10;99.90;;;-141.84;88.88;54927.34;5107774;28;20252;-71
2024/01/20 00:16:21;;;;;;;14.03;8.60;;;-3.00;99.90;;;-141.84;87.88;46275.03;5106857;28;20200;-74
2024/01/20 00:18:50;;;;;;;14.90;8.93;;;-3.00;99.90;;;-141.84;86.34;39406.06;5105545;28;20213;-72
2024/01/20 00:21:18;;;;;;;14.47;8.97;;;-2.90;99.90;;;-141.84;86.57;36721.00;5109827;28;20227;-74
2024/01/20 00:23:47;;;;;;;13.87;9.73;;;-2.90;99.90;;;-141.84;87.49;43395.16;5109910;28;20224;-75
2024/01/20 00:26:16;;;;;;;13.77;9.43;;;-3.00;99.90;;;-141.84;89.00;52565.75;5090113;28;20228;-70
2024/01/20 00:28:45;;;;;;;20.37;9.37;;;-3.10;99.90;;;-141.84;88.55;51516.59;5096216;28;20251;-69
2024/01/20 00:31:13;;;;;;;15.53;10.23;;;-3.10;99.90;;;-141.84;88.00;49419.16;5093916;28;20206;-69
2024/01/20 00:33:43;;;;;;;16.53;9.67;;;-3.10;99.90;;;-141.84;87.81;46536.97;5087487;28;20199;-69
2024/01/20 00:36:12;;;;;;;17.07;10.03;;;-3.10;99.90;;;-141.84;86.77;40517.34;5101597;28;20326;-70
2024/01/20 00:38:42;;;;;;;16.57;8.87;;;-3.10;99.90;;;-141.84;86.80;43133.44;5093872;28;20215;-70
2024/01/20 00:41:11;;;;;;;14.63;9.40;;;-3.10;99.90;;;-141.84;86.15;35025.16;5098504;28;20763;-73
2024/01/20 00:43:39;;;;;;;15.73;9.53;;;-3.00;99.90;;;-141.84;87.03;39471.41;5094560;28;20236;-71
2024/01/20 00:46:09;;;;;;;15.97;10.17;;;-3.10;99.90;;;-141.84;86.92;41302.00;5073408;28;20200;-70
2024/01/20 00:48:37;;;;;;;14.33;9.00;;;-3.10;99.90;;;-141.84;87.18;43656.88;5066707;28;20197;-70
2024/01/20 00:51:07;;;;;;;14.97;9.10;;;-3.10;99.90;;;-141.84;86.75;38464.53;5057986;28;20219;-72
2024/01/20 00:53:35;;;;;;;16.23;9.60;;;-3.10;99.90;;;-141.84;87.32;45751.28;5080621;28;20226;-71
2024/01/20 00:56:04;;;;;;;16.07;9.53;;;-3.10;99.90;;;-141.84;87.08;41302.00;5092363;28;20249;-71
2024/01/20 00:58:32;;;;;;;14.67;8.77;;;-3.10;99.90;;;-141.84;87.58;44703.94;5090374;28;20222;-71
2024/01/20 01:01:02;;;;;;;14.63;9.30;;;-3.10;99.90;;;-141.84;87.49;44442.13;5087384;28;20581;-70
2024/01/20 01:03:31;;;;;;;16.37;9.77;;;-3.10;99.90;;;-141.84;87.20;45227.56;5090926;28;20224;-70
2024/01/20 01:05:59;;;;;;;17.43;9.37;;;-3.10;99.90;;;-141.84;86.11;34039.81;5096178;28;20256;-72
2024/01/20 01:08:29;;;;;;;15.97;9.80;;;-3.00;99.90;;;-141.84;85.86;32002.63;5107714;28;20249;-71
2024/01/20 01:10:58;;;;;;;16.27;9.20;;;-3.00;99.90;;;-141.84;85.10;29597.69;5092224;28;20253;-70
2024/01/20 01:13:26;;;;;;;14.17;8.83;;;-3.00;99.90;;;-141.84;87.12;38305.25;5099587;28;20233;-71
2024/01/20 01:15:56;;;;;;;15.80;9.27;;;-3.00;99.90;;;-141.84;87.49;44703.94;5093880;28;20199;-71
2024/01/20 01:18:25;;;;;;;13.80;9.17;;;-3.10;99.90;;;-141.84;87.29;43133.44;5099501;28;20226;-71
2024/01/20 01:20:53;;;;;;;14.97;9.43;;;-3.10;99.90;;;-141.84;87.77;46275.03;5092909;28;20246;-71
2024/01/20 01:23:22;;;;;;;13.90;9.63;;;-3.00;99.90;;;-141.84;88.31;48108.81;5092120;28;20276;-71
2024/01/20 01:25:53;;;;;;;15.20;9.43;;;-3.10;99.90;;;-141.84;87.15;44703.94;5092081;28;20235;-71
2024/01/20 01:28:22;;;;;;;14.30;8.43;;;-3.10;99.90;;;-141.84;86.78;41825.19;5084415;28;20218;-71
2024/01/20 01:30:50;;;;;;;13.63;8.70;;;-3.00;99.90;;;-141.84;87.28;42086.81;5094368;28;20568;-71
2024/01/20 01:33:20;;;;;;;14.00;8.27;;;-3.10;99.90;;;-141.84;85.08;29848.28;5093666;28;20281;-69
2024/01/20 01:35:48;;;;;;;13.37;8.17;;;-3.00;99.90;;;-141.84;86.06;32177.94;5093281;28;20277;-72
2024/01/20 01:38:16;;;;;;;14.07;8.67;;;-3.00;99.90;;;-141.84;86.48;37439.56;5093963;28;20817;-72
2024/01/20 01:40:45;;;;;;;14.73;8.77;;;-3.10;99.90;;;-141.84;84.52;26951.91;5094214;28;20318;-71
2024/01/20 01:43:15;;;;;;;17.00;8.87;;;-3.00;99.90;;;-141.84;83.82;24751.53;5092574;28;20282;-71
2024/01/20 01:45:43;;;;;;;14.90;8.57;;;-3.00;99.90;;;-141.84;83.51;22542.22;5097058;28;20241;-72
2024/01/20 01:48:12;;;;;;;12.90;8.20;;;-2.90;99.90;;;-141.84;82.90;22074.47;5097242;28;20250;-72
2024/01/20 01:50:41;;;;;;;12.17;8.10;;;-3.00;99.90;;;-141.84;82.19;20301.63;5043681;28;20230;-71
2024/01/20 01:53:11;;;;;;;11.77;7.43;;;-2.90;99.90;;;-141.84;82.49;21015.16;5097040;28;20246;-72
2024/01/20 01:55:43;;;;;;;11.47;7.60;;;-3.00;99.90;;;-141.84;80.81;19305.78;5088431;28;20994;-71
2024/01/20 01:58:11;;;;;;;11.87;7.53;;;-2.90;99.90;;;-141.84;80.18;18826.25;5097195;28;20187;-71
2024/01/20 02:00:42;;;;;;;11.93;6.93;;;-2.80;99.90;;;-141.84;81.11;19153.38;5096268;28;20228;-71
2024/01/20 02:03:10;;;;;;;13.73;7.40;;;-3.00;99.90;;;-141.84;81.10;19145.25;5095452;28;20223;-72
2024/01/20 02:05:39;;;;;;;10.63;6.77;;;-3.00;99.90;;;-141.84;81.96;19801.66;5086862;28;20260;-71
2024/01/20 02:08:10;;;;;;;15.17;7.70;;;-3.20;99.90;;;-141.84;81.58;19543.53;5073958;28;20279;-70
2024/01/20 02:10:40;;;;;;;11.03;6.57;;;-3.20;99.90;;;-141.84;81.42;19423.66;5076769;28;20223;-71
2024/01/20 02:13:10;;;;;;;10.40;6.57;;;-3.20;99.90;;;-141.84;82.06;19960.16;5072951;28;20188;-71
2024/01/20 02:15:41;;;;;;;11.80;6.60;;;-3.20;99.90;;;-141.84;81.82;19639.06;5068476;28;20242;-71
2024/01/20 02:18:09;;;;;;;15.63;8.10;;;-3.20;99.90;;;-141.84;83.48;21639.31;5075735;28;20220;-72
2024/01/20 02:20:38;;;;;;;10.43;6.80;;;-3.30;99.90;;;-141.84;83.13;21301.81;5075781;28;20284;-72
2024/01/20 02:23:08;;;;;;;12.20;7.53;;;-3.30;99.90;;;-141.84;81.89;19964.25;5076815;28;20242;-71
2024/01/20 02:25:36;;;;;;;11.40;6.93;;;-3.30;99.90;;;-141.84;82.12;19994.72;5077210;28;20285;-71
2024/01/20 02:28:05;;;;;;;12.17;7.23;;;-3.30;99.90;;;-141.84;83.83;22422.22;5075793;28;20230;-70
2024/01/20 02:30:34;;;;;;;9.93;6.10;;;-3.30;99.90;;;-141.84;83.20;22224.97;5078161;28;20252;-71
2024/01/20 02:33:03;;;;;;;13.93;7.00;;;-3.30;99.90;;;-141.84;82.48;20689.88;5080009;28;20704;-71
2024/01/20 02:35:31;;;;;;;10.20;6.93;;;;;;;-141.84;80.98;19305.78;5076990;28;20224;-72
2024/01/20 02:38:01;;;;;;;9.63;6.37;;;;;;;-141.84;80.18;18812.00;5079126;28;20645;-72
2024/01/20 02:40:31;;;;;;;11.33;6.27;;;;;;;-141.84;80.20;18956.28;5077165;28;20232;-72
2024/01/20 02:42:59;;;;;;;9.80;6.30;;;;;;;-141.84;80.58;18856.72;5077850;28;20202;-72
2024/01/20 02:45:28;;;;;;;11.63;6.43;;;;;;;-141.84;80.30;18913.59;5076660;28;20541;-72
2024/01/20 02:48:00;;;;;;;12.23;6.57;;;;;;;-141.84;79.19;18495.06;5076774;28;20219;-71
2024/01/20 02:50:30;;;;;;;9.50;6.17;;;;;;;-141.84;78.33;18389.41;5068693;28;20229;-71
2024/01/20 02:52:58;;;;;;;12.00;6.67;;;;;;;-141.84;77.69;18291.91;5075419;28;20596;-72
2024/01/20 02:55:27;;;;;;;12.00;6.57;;;;;;;-141.84;77.58;18277.69;5076138;28;20224;-72
2024/01/20 02:57:56;;;;;;;11.83;6.60;;;-3.00;99.90;;;-141.84;78.35;18395.50;5077391;28;20204;-72
2024/01/20 03:00:25;;;;;;;12.13;6.63;;;-2.90;99.90;;;-141.84;77.98;18381.28;5074869;28;20280;-72
2024/01/20 03:03:02;;;;;;;15.17;6.87;;;-3.10;99.90;;;-141.84;77.94;18328.47;5075945;28;20224;-71
2024/01/20 03:05:31;;;;;;;12.63;5.97;;;-3.00;99.90;;;-141.84;77.69;18289.88;5074514;28;20276;-71
2024/01/20 03:07:59;;;;;;;9.87;6.17;;;-3.00;99.90;;;-141.84;77.48;18302.06;5075369;28;20252;-72
2024/01/20 03:10:27;;;;;;;10.87;5.53;;;-3.00;99.90;;;-141.84;77.00;18245.19;5073725;28;20235;-72
2024/01/20 03:12:57;;;;;;;8.90;5.80;;;-3.00;99.90;;;-141.84;76.56;18212.66;5075076;28;20208;-73
2024/01/20 03:15:26;;;;;;;8.90;5.70;;;-3.10;99.90;;;-141.84;77.78;18289.88;5074537;28;20234;-72
2024/01/20 03:17:54;;;;;;;8.97;5.80;;;-3.10;99.90;;;-141.84;77.62;18310.19;5074991;28;20216;-72
2024/01/20 03:20:22;;;;;;;9.13;5.67;;;-3.10;99.90;;;-141.84;77.08;18247.22;5075936;28;20307;-71
2024/01/20 03:22:50;;;;;;;12.90;6.97;;;-3.10;99.90;;;-141.84;77.34;18257.38;5075071;28;20310;-72
2024/01/20 03:25:19;;;;;;;8.23;5.87;;;-3.10;99.90;;;-141.84;78.44;18399.56;5075039;28;20225;-72
2024/01/20 03:27:47;;;;;;;9.87;5.73;;;-3.20;99.90;;;-141.84;78.36;18373.16;5076572;28;20864;-72
2024/01/20 03:30:18;;;;;;;10.50;5.80;;;-3.20;99.90;;;-141.84;77.94;18293.94;5073705;28;20220;-74
2024/01/20 03:32:46;;;;;;;8.47;5.33;;;-3.10;99.90;;;-141.84;77.44;18267.53;5077209;28;20726;-72
2024/01/20 03:35:15;;;;;;;9.80;6.03;;;-3.10;99.90;;;-141.84;77.26;18318.31;5074957;28;20704;-72
2024/01/20 03:37:43;;;;;;;10.47;5.77;;;-3.20;99.90;;;-141.84;77.91;18320.34;5067888;28;20636;-72
2024/01/20 03:40:11;;;;;;;9.13;6.10;;;-3.10;99.90;;;-141.84;77.63;18330.50;5076485;28;20208;-71
2024/01/20 03:42:40;;;;;;;10.03;5.80;;;-3.10;99.90;;;-141.84;76.34;18200.47;5076345;28;20257;-72
2024/01/20 03:45:09;;;;;;;8.57;5.17;;;-3.00;99.90;;;-141.84;77.64;18273.63;5076918;28;20230;-72
2024/01/20 03:47:40;;;;;;;11.67;5.83;;;-3.10;99.90;;;-141.84;77.09;18253.31;5074528;28;20239;-71
2024/01/20 03:50:10;;;;;;;9.27;5.90;;;-3.10;99.90;;;-141.84;77.11;18287.84;5073892;28;20238;-61
2024/01/20 03:52:38;;;;;;;11.47;5.97;;;-3.00;99.90;;;-141.84;77.70;18326.44;5074222;28;20235;-62
2024/01/20 03:55:08;;;;;;;7.83;5.87;;;-3.10;99.90;;;-141.84;78.22;18344.72;5073457;28;20609;-63
2024/01/20 03:57:40;;;;;;;7.87;5.60;;;-3.10;99.90;;;-141.84;77.23;18304.09;5073222;28;20273;-61
2024/01/20 04:00:10;;;;;;;9.77;5.53;;;-3.10;99.90;;;-141.84;77.37;18310.19;5072591;28;20274;-61
2024/01/20 04:02:40;;;;;;;9.50;5.93;;;-3.10;99.90;;;-141.84;76.56;18265.50;5072217;28;20223;-61
2024/01/20 04:05:09;;;;;;;11.00;6.23;;;-3.00;99.90;;;-141.84;76.78;18249.25;5074433;28;20234;-62
2024/01/20 04:07:40;;;;;;;9.33;5.93;;;-3.00;99.90;;;-141.84;77.69;18338.63;5080489;28;20595;-61
2024/01/20 04:10:10;;;;;;;9.33;6.03;;;-3.10;99.90;;;-141.84;77.47;18328.47;5081981;28;20280;-61
2024/01/20 04:12:40;;;;;;;7.17;5.20;;;-3.10;99.90;;;-141.84;77.53;18354.88;5080097;28;20296;-62
2024/01/20 04:15:09;;;;;;;9.00;5.50;;;-3.10;99.90;;;-141.84;77.74;18332.53;5074926;28;20310;-61
2024/01/20 04:17:42;;;;;;;9.73;5.70;;;-3.10;99.90;;;-141.84;76.40;18251.28;5089722;28;20219;-60
2024/01/20 04:20:11;;;;;;;9.40;6.27;;;-3.00;99.90;;;-141.84;76.56;18230.94;5073473;28;20302;-60
2024/01/20 04:22:40;;;;;;;8.23;5.23;;;-3.00;99.90;;;-141.84;76.49;18222.81;5081761;28;20234;-61
2024/01/20 04:25:09;;;;;;;8.23;5.90;;;-2.90;99.90;;;-141.84;75.77;18210.63;5082770;28;20261;-61
2024/01/20 04:27:40;;;;;;;9.13;5.60;;;-2.90;99.90;;;-141.84;76.52;18277.69;5083469;28;20194;-61
2024/01/20 04:30:10;;;;;;;8.47;5.73;;;-2.90;99.90;;;-141.84;76.66;18257.38;5077722;28;20233;-63
2024/01/20 04:32:39;;;;;;;9.00;5.67;;;-3.00;99.90;;;-141.84;76.88;18226.88;5081921;28;20231;-72
2024/01/20 04:35:09;;;;;;;9.77;6.00;;;-3.00;99.90;;;-141.84;77.11;18291.91;5081815;28;20250;-71
2024/01/20 04:37:39;;;;;;;8.50;5.60;;;-3.10;99.90;;;-141.84;75.26;18192.34;5067287;28;20220;-71
2024/01/20 04:40:08;;;;;;;8.90;5.63;;;-3.10;99.90;;;-141.84;75.73;18196.41;5084473;28;20194;-71
2024/01/20 04:42:36;;;;;;;9.27;5.97;;;-3.10;99.90;;;-141.84;75.75;18204.53;5084326;28;20259;-71
2024/01/20 04:45:07;;;;;;;9.83;5.27;;;-3.10;99.90;;;-141.84;76.89;18269.56;5074924;28;20246;-71
2024/01/20 04:47:35;;;;;;;9.33;6.63;;;-3.20;99.90;;;-141.84;76.91;18285.81;5084841;28;20322;-71
2024/01/20 04:50:04;;;;;;;6.93;5.40;;;-3.20;99.90;;;-141.84;76.01;18216.72;5083077;28;20315;-73
2024/01/20 04:52:35;;;;;;;7.73;6.07;;;-3.10;99.90;;;-141.84;75.79;18230.94;5079937;28;20308;-71
2024/01/20 04:55:04;;;;;;;9.03;6.30;;;-3.10;99.90;;;-141.84;76.26;18216.72;5082839;28;20193;-72
2024/01/20 04:57:32;;;;;;;8.70;6.03;;;-3.20;99.90;;;-141.84;76.32;18241.13;5082849;28;20280;-72
2024/01/20 05:00:00;;;;;;;10.30;5.73;;;-3.20;99.90;;;-141.84;76.74;18269.56;5060076;28;20275;-72
2024/01/20 05:02:28;;;;;;;9.07;5.63;;;-3.30;99.90;;;-141.84;75.35;18196.41;5063040;28;20233;-71
2024/01/20 05:04:57;;;;;;;9.53;5.57;;;-3.20;99.90;;;-141.84;75.96;18222.81;5058375;28;20266;-72
2024/01/20 05:07:25;;;;;;;10.17;6.20;;;-3.30;99.90;;;-141.84;76.30;18232.97;5095038;28;20252;-74
2024/01/20 05:09:58;;;;;;;7.70;5.07;;;-3.30;99.90;;;-141.84;76.35;18230.94;5096956;28;20722;-72
2024/01/20 05:12:28;;;;;;;8.03;5.43;;;-3.30;99.90;;;-141.84;76.82;18289.88;5094697;28;20623;-72
2024/01/20 05:14:58;;;;;;;7.87;5.10;;;-3.30;99.90;;;-141.84;76.05;18247.22;5096436;28;20286;-71
2024/01/20 05:17:27;;;;;;;6.97;4.60;;;-3.30;99.90;;;-141.84;76.26;18224.84;5094202;28;20226;-72
2024/01/20 05:19:55;;;;;;;7.47;5.43;;;-3.30;99.90;;;-141.84;76.77;18277.69;5094886;28;20231;-71
2024/01/20 05:22:24;;;;;;;9.20;5.00;;;-3.40;99.90;;;-141.84;76.88;18310.19;5093732;28;20219;-71
2024/01/20 05:24:53;;;;;;;8.20;5.13;;;-3.30;99.90;;;-141.84;77.09;18263.47;5095302;28;20195;-71
2024/01/20 05:27:22;;;;;;;8.27;5.73;;;-3.40;99.90;;;-141.84;76.63;18241.13;5093109;28;20303;-72
2024/01/20 05:29:50;;;;;;;8.30;5.23;;;-3.30;99.90;;;-141.84;76.70;18273.63;5093320;28;20328;-71
2024/01/20 05:32:18;;;;;;;10.03;5.63;;;-3.30;99.90;;;-141.84;76.43;18245.19;5077903;28;20231;-72
2024/01/20 05:34:47;;;;;;;8.77;5.30;;;-3.20;99.90;;;-141.84;76.48;18273.63;5087987;28;20230;-73
2024/01/20 05:37:16;;;;;;;7.17;5.07;;;-3.30;99.90;;;-141.84;77.22;18295.97;5090958;28;20222;-72
2024/01/20 05:39:44;;;;;;;7.53;5.43;;;-3.30;99.90;;;-141.84;75.76;18208.59;5093099;28;20219;-72
2024/01/20 05:42:15;;;;;;;9.07;5.40;;;-3.20;99.90;;;-141.84;76.46;18251.28;5092446;28;20258;-72
2024/01/20 05:44:43;;;;;;;8.40;5.50;;;-3.20;99.90;;;-141.84;76.79;18283.78;5093997;28;20276;-71
2024/01/20 05:47:12;;;;;;;10.40;5.70;;;-3.20;99.90;;;-141.84;76.44;18257.38;5093768;28;20222;-71
2024/01/20 05:49:40;;;;;;;7.57;5.27;;;-3.10;99.90;;;-141.84;76.49;18289.88;5093706;28;20323;-72
2024/01/20 05:52:08;;;;;;;8.13;5.30;;;-3.10;99.90;;;-141.84;76.80;18293.94;5093310;28;20218;-71
2024/01/20 05:54:36;;;;;;;8.73;5.97;;;-3.10;99.90;;;-141.84;77.32;18326.44;5093655;28;20323;-72
2024/01/20 05:57:05;;;;;;;9.30;5.90;;;-3.20;99.90;;;-141.84;77.49;18306.13;5086425;28;20279;-72
2024/01/20 05:59:35;;;;;;;10.13;6.20;;;-3.20;99.90;;;-141.84;77.17;18308.16;5094759;28;20219;-72
2024/01/20 06:02:04;;;;;;;9.73;6.27;;;-3.10;99.90;;;-141.84;76.85;18269.56;5092067;28;20223;-71
2024/01/20 06:04:32;;;;;;;9.10;5.67;;;-3.10;99.90;;;-141.84;76.88;18283.78;5091587;28;20254;-72
2024/01/20 06:07:04;;;;;;;8.50;5.73;;;-3.10;99.90;;;-141.84;75.86;18230.94;5087121;28;20197;-72
2024/01/20 06:09:32;;;;;;;9.80;5.80;;;-3.10;99.90;;;-141.84;75.38;18208.59;5073490;28;20220;-71
2024/01/20 06:12:01;;;;;;;8.90;5.87;;;-3.10;99.90;;;-141.84;77.64;18342.69;5072236;28;20230;-72
2024/01/20 06:14:29;;;;;;;10.87;6.70;;;-3.10;99.90;;;-141.84;78.31;18413.78;5073180;28;20232;-72
2024/01/20 06:16:58;;;;;;;9.57;5.57;;;-3.20;99.90;;;-141.84;78.37;18401.59;5072115;28;20231;-73
2024/01/20 06:19:27;;;;;;;9.83;5.77;;;-3.20;99.90;;;-141.84;77.16;18289.88;5071123;28;20247;-72
2024/01/20 06:21:59;;;;;;;9.00;5.97;;;-3.10;99.90;;;-141.84;77.34;18326.44;5074950;28;20204;-73
2024/01/20 06:24:27;;;;;;;9.83;6.27;;;-3.10;99.90;;;-141.84;78.08;18360.97;5070823;28;20258;-72
2024/01/20 06:27:00;;;;;;;8.53;5.73;;;-3.20;99.90;;;-141.84;77.58;18387.38;5071871;28;20228;-71
2024/01/20 06:29:28;;;;;;;7.47;5.70;;;-3.10;99.90;;;-141.84;77.78;18363.00;5071520;28;20910;-73
2024/01/20 06:32:01;;;;;;;10.73;6.17;;;-3.10;99.90;;;-141.84;78.27;18442.25;5084331;28;20251;-72
2024/01/20 06:34:29;;;;;;;9.93;6.33;;;-3.20;99.90;;;-141.84;76.97;18310.19;5088774;28;20799;-72
2024/01/20 06:37:01;;;;;;;10.10;6.50;;;-3.10;99.90;;;-141.84;76.83;18287.84;5088286;28;20259;-71
2024/01/20 06:39:29;;;;;;;8.97;6.20;;;-3.10;99.90;;;-141.84;77.34;18342.69;5097919;28;20622;-71
2024/01/20 06:42:00;;;;;;;10.10;5.60;;;-3.10;99.90;;;-141.84;78.40;18395.50;5097096;28;20225;-71
2024/01/20 06:44:29;;;;;;;10.53;6.30;;;-3.10;99.90;;;-141.84;78.04;18391.44;5096239;28;20322;-71
2024/01/20 06:46:59;;;;;;;10.87;6.43;;;-3.10;99.90;;;-141.84;79.54;18608.84;5097264;28;20314;-72
2024/01/20 06:49:27;;;;;;;9.43;6.30;;;-3.20;99.90;;;-141.84;78.79;18586.50;5095988;28;20305;-62
2024/01/20 06:51:56;;;;;;;10.73;5.80;;;-3.20;99.90;;;-141.84;77.78;18385.34;5095951;28;20195;-61
2024/01/20 06:54:24;;;;;;;9.43;5.90;;;-3.20;99.90;;;-141.84;77.53;18340.66;5074839;28;20228;-64
2024/01/20 06:56:53;;;;;;;11.67;6.47;;;-3.20;99.90;;;-141.84;77.60;18363.00;5095497;28;20223;-61
2024/01/20 06:59:23;;;;;;;9.17;5.30;;;-3.20;99.90;;;-141.84;77.16;18316.28;5096050;28;20369;-62
2024/01/20 07:01:51;;;;;;;8.83;5.40;;;-3.30;99.90;;;-141.84;76.02;18241.13;5093782;28;20257;-61
2024/01/20 07:04:24;;;;;;;9.40;5.90;;;-3.20;99.90;;;-141.84;76.19;18249.25;5091004;28;20274;-61
2024/01/20 07:06:52;;;;;;;8.40;5.43;;;-3.20;99.90;;;-141.84;75.97;18226.88;5095779;28;20199;-61
2024/01/20 07:09:23;;;;;;;7.03;5.33;;;-3.30;99.90;;;-141.84;75.93;18208.59;5094616;28;20820;-62
2024/01/20 07:11:55;;;;;;;7.17;4.70;;;-3.30;99.90;;;-141.84;75.89;18220.78;5093403;28;20292;-61
2024/01/20 07:14:23;;;;;;;8.43;5.23;;;-3.30;99.90;;;-141.84;75.01;18216.72;5085212;28;20689;-60
2024/01/20 07:16:52;;;;;;;7.07;5.10;;;-3.30;99.90;;;-141.84;75.55;18202.50;5094043;28;20229;-63
2024/01/20 07:19:20;;;;;;;6.80;4.70;;;-3.40;99.90;;;-141.84;75.64;18192.34;5094969;28;20210;-62
2024/01/20 07:21:50;;;;;;;8.60;5.10;;;-3.40;99.90;;;-141.84;75.69;18188.28;5094641;28;20192;-63
2024/01/20 07:24:18;;;;;;;7.90;4.90;;;-3.40;99.90;;;-141.84;74.68;18198.44;5071202;28;20228;-61
2024/01/20 07:26:46;;;;;;;10.57;5.03;;;-3.40;99.90;;;-141.84;74.20;18159.84;5089415;28;20281;-72
2024/01/20 07:29:15;;;;;;;9.40;5.17;;;-3.30;99.90;;;-141.84;73.73;18172.03;5095235;28;20825;-61
2024/01/20 07:31:43;;;;;;;6.40;4.83;;;-3.30;99.90;;;-141.84;74.94;18184.22;5093851;28;20263;-61
2024/01/20 07:34:12;;;;;;;6.97;4.87;;;-3.30;99.90;;;-141.84;75.17;18206.56;5093924;28;20309;-61
2024/01/20 07:36:40;;;;;;;8.13;5.07;;;-3.40;99.90;;;-141.84;74.33;18149.69;5093439;28;20282;-61
2024/01/20 07:39:10;;;;;;;7.07;4.93;;;-3.30;99.90;;;-141.84;73.20;18141.56;5093520;28;20722;-61
2024/01/20 07:41:38;;;;;;;8.20;4.97;;;-3.20;99.90;;;-141.84;73.20;18149.69;5093994;28;20223;-61
2024/01/20 07:44:07;;;;;;;10.07;5.17;;;-3.20;99.90;;;-141.84;73.51;18182.19;5091479;28;20298;-61
2024/01/20 07:46:35;;;;;;;7.40;5.60;;;-3.20;99.90;;;-141.84;72.78;18170.00;5094001;28;20231;-61
2024/01/20 07:49:03;;;;;;;8.90;5.50;;;-3.10;99.90;;;-141.84;72.96;18131.41;5089407;28;20203;-60
2024/01/20 07:51:32;;;;;;;8.97;5.60;;;-3.20;99.90;;;-141.84;72.43;18165.94;5073535;28;20234;-62
2024/01/20 07:54:00;;;;;;;9.00;5.40;;;-2.80;99.90;;;-141.84;72.54;18172.03;5073842;28;20224;-62
2024/01/20 07:56:30;;;;;;;10.97;5.83;;;-3.10;99.90;;;-141.84;71.76;18137.50;5073311;28;20235;-62
2024/01/20 07:58:58;;;;;;;7.53;5.40;;;-3.00;99.90;;;-141.84;71.15;18155.78;5072311;28;20247;-61
2024/01/20 08:01:26;;;;;;;10.57;5.67;;;-2.90;99.90;;;-141.84;71.08;18174.06;5072522;28;20314;-60
2024/01/20 08:03:55;;;;;;;7.60;5.87;;;-2.90;99.90;;;-141.84;71.50;18165.94;5073047;28;20200;-62
2024/01/20 08:06:23;;;;;;;9.17;5.60;;;-2.90;99.90;;;-141.84;72.05;18167.97;5073783;28;20227;-62
2024/01/20 08:08:51;;;;;;;10.20;5.90;;;-2.90;99.90;;;-141.84;71.68;18147.66;5072715;28;20225;-61
2024/01/20 08:11:19;;;;;;;7.50;5.70;;;-2.90;99.90;;;-141.84;71.08;18176.09;5072920;28;20247;-60
2024/01/20 08:13:51;;;;;;;8.77;5.93;;;-2.70;99.90;;;-141.84;70.71;18184.22;5072884;28;20314;-61
2024/01/20 08:16:21;;;;;;;9.90;5.63;;;-2.70;99.90;;;-141.84;70.82;18163.91;5071931;28;20247;-61
2024/01/20 08:18:49;;;;;;;9.90;5.67;;;-2.60;99.90;;;-141.84;70.22;18182.19;5071143;28;20235;-61
2024/01/20 08:21:21;;;;;;;8.87;5.97;;;-2.60;99.90;;;-141.84;70.12;18178.13;5071712;28;20585;-62
2024/01/20 08:23:49;;;;;;;8.10;5.43;;;-2.60;99.90;;;-141.84;69.23;18170.00;5070833;28;20208;-61
2024/01/20 08:26:17;;;;;;;8.30;5.57;;;-2.50;99.90;;;-141.84;68.88;18153.75;5072200;28;20298;-61
2024/01/20 08:28:46;;;;;;;7.93;5.50;;;-2.50;99.90;;;-141.84;68.52;18153.75;5071717;28;20244;-64
2024/01/20 08:31:16;;;;;;;8.03;5.33;;;-2.40;99.90;;;-141.84;67.21;18161.88;5073361;28;20208;-62
2024/01/20 08:33:44;;;;;;;8.07;6.10;;;-2.30;99.90;;;-141.84;67.17;18178.13;5020383;28;20226;-61
2024/01/20 08:36:13;;;;;;;9.40;6.03;;;-2.30;99.90;;;-141.84;67.51;18180.16;5071095;28;20263;-61
2024/01/20 08:38:42;;;;;;;8.23;6.47;;;-2.20;99.90;;;-141.84;67.00;18192.34;5071633;28;20228;-62
2024/01/20 08:41:10;;;;;;;9.10;6.70;;;-2.20;99.90;;;-141.84;66.96;18167.97;5072481;28;20285;-61
2024/01/20 08:43:43;;;;;;;13.93;6.40;;;-2.00;99.90;;;-141.84;66.62;18196.41;5072242;28;20716;-71
2024/01/20 08:46:12;;;;;;;8.13;6.17;;;-2.10;99.90;;;-141.84;66.42;18163.91;5073368;28;20200;-71
2024/01/20 08:48:42;;;;;;;9.10;6.17;;;-2.10;99.90;;;-141.84;66.69;18184.22;5071563;28;20594;-71
2024/01/20 08:51:10;;;;;;;9.37;6.30;;;-2.10;99.90;;;-141.84;66.69;18167.97;5072883;28;20263;-72
2024/01/20 08:53:39;;;;;;;10.77;6.30;;;-2.10;99.90;;;-141.84;66.02;18196.41;5073180;28;20231;-72
2024/01/20 08:56:08;;;;;;;9.17;5.90;;;-2.00;99.90;;;-141.84;65.32;18165.94;5071492;28;20322;-70
2024/01/20 08:58:36;;;;;;;7.70;5.70;;;-1.90;99.90;;;-141.84;65.38;18188.28;5071153;28;20263;-72
2024/01/20 09:01:06;;;;;;;9.47;6.10;;;-1.80;99.90;;;-141.84;65.37;18192.34;5075105;28;20254;-70
2024/01/20 09:03:39;;;;;;;9.17;5.63;;;-1.70;99.90;;;-141.84;63.75;18194.38;5074902;28;20201;-60
2024/01/20 09:06:13;;;;;;;9.10;6.07;;;-1.60;99.90;;;-141.84;62.84;18161.88;5074712;28;20232;-72
2024/01/20 09:08:41;;;;;;;8.47;5.53;;;-1.40;99.90;;;-141.84;61.69;18245.19;5075794;28;20217;-71
2024/01/20 09:11:10;;;;;;;8.60;5.73;;;-1.30;99.90;;;-141.84;62.01;18237.06;5075234;28;20281;-71
2024/01/20 09:13:41;;;;;;;8.73;5.87;;;-1.20;99.90;;;-141.84;62.07;18224.84;5075470;28;20228;-70
2024/01/20 09:16:10;;;;;;;9.37;5.70;;;-1.20;99.90;;;-141.84;62.62;18226.88;5070899;28;20280;-70
2024/01/20 09:18:38;;;;;;;7.47;5.60;;;-1.20;99.90;;;-141.84;62.64;18228.91;5070915;28;20700;-72
2024/01/20 09:21:12;;;;;;;7.27;5.50;;;-1.10;99.90;;;-141.84;62.04;18220.78;5069272;28;20306;-70
2024/01/20 09:23:41;;;;;;;7.80;5.90;;;-1.00;99.90;;;-141.84;62.10;18235.00;5069296;28;20266;-71
2024/01/20 09:26:10;;;;;;;9.27;5.80;;;-1.10;99.90;;;-141.84;61.88;18206.56;5072589;28;20813;-70
2024/01/20 09:28:38;;;;;;;7.60;5.57;;;-1.10;99.90;;;-141.84;61.41;18241.13;5071347;28;20329;-73
2024/01/20 09:31:06;;;;;;;8.20;5.73;;;-1.00;99.90;;;-141.84;61.41;18253.31;5072419;28;20724;-72
2024/01/20 09:33:34;;;;;;;9.80;6.00;;;-1.00;99.90;;;-141.84;60.92;18235.00;5072894;28;20231;-71
2024/01/20 09:36:05;;;;;;;9.80;5.67;;;-1.00;99.90;;;-141.84;60.82;18253.31;5051850;28;20792;-72
2024/01/20 09:38:34;;;;;;;7.37;5.83;;;-1.00;99.90;;;-141.84;60.76;18239.09;5089568;28;20721;-73
2024/01/20 09:41:09;;;;;;;8.10;5.40;;;-1.00;99.90;;;-141.84;61.01;18237.06;5085859;28;20243;-75
2024/01/20 09:43:39;;;;;;;8.17;5.47;;;-0.90;99.90;;;-141.84;60.47;18241.13;5091002;28;20280;-76
2024/01/20 09:46:08;;;;;;;7.90;5.50;;;-0.80;99.90;;;-141.84;60.49;18255.34;5082310;28;20204;-73
2024/01/20 09:48:37;;;;;;;7.33;5.50;;;-0.80;99.90;;;-141.84;59.80;18251.28;5092438;28;20261;-72
2024/01/20 09:51:08;;;;;;;8.40;5.97;;;-0.80;99.90;;;-141.84;60.39;18243.16;5089601;28;20222;-73
2024/01/20 09:53:40;;;;;;;9.47;5.80;;;-0.70;99.90;;;-141.84;60.09;18285.81;5090681;28;20295;-73
2024/01/20 09:56:08;;;;;;;8.30;5.80;;;-0.70;99.90;;;-141.84;60.24;18237.06;5082868;28;20256;-74
2024/01/20 09:58:39;;;;;;;7.60;5.50;;;-0.60;99.90;;;-141.84;59.50;18241.13;5091727;28;20380;-75
2024/01/20 10:01:07;;;;;;;9.20;6.53;;;-0.70;99.90;;;-141.84;58.96;18306.13;5090184;28;20216;-71
2024/01/20 10:03:40;;;;;;;8.47;5.90;;;-0.60;99.90;;;-141.84;58.68;18241.13;5087384;28;20745;-74
2024/01/20 10:06:09;;;;;;;7.40;5.17;;;-0.50;99.90;;;-141.84;59.03;18253.31;5093041;28;20230;-74
2024/01/20 10:08:39;;;;;;;7.53;5.07;;;-0.50;99.90;;;-141.84;59.01;18251.28;5095841;28;20242;-74
2024/01/20 10:11:07;;;;;;;9.63;5.73;;;-0.50;99.90;;;-141.84;58.71;18269.56;5095300;28;20219;-73
2024/01/20 10:13:36;;;;;;;7.87;5.13;;;-0.40;99.90;;;-141.84;58.74;18251.28;5095626;28;20317;-75